Nearby METAR Reports


KSYR - Syracuse, New York, USA
Distance from station: SE 5mi, 8km
Updated: Fri, 19-Jul-2019 10:54pm EDT
Overcast
Overcast
 Wind from SW
Wind: SW 6 mph , 9 km/h
Temperature: 81°F , 27°C
Heat Index: 85°F , 29°C
Dew Point: 72°F , 22°C
Humidity: 74%
Barometer: 29.84 inHg , 1010.5 hPa
Clouds: Overcast
Visibility: 10 miles , 16 km
Cloud details: Few Clouds 3800 ft
Partly cloudy 4800 ft
Mostly cloudy 12000 ft
Overcast 25000 ft
2019/07/20 02:54 KSYR 200254Z 23005KT 10SM FEW038 SCT048 BKN120 OVC250 27/22 A2984 RMK AO2 RAB16E26 SLP099 P0000 60000 T02670222 50000
KFZY - Fulton, New York, USA
Distance from station: NW 17mi, 27km
Updated: Fri, 19-Jul-2019 10:54pm EDT
Overcast
Overcast
 Wind from calm
Wind: Calm
Temperature: 75°F , 24°C
Dew Point: 72°F , 22°C
Humidity: 89%
Barometer: 29.84 inHg , 1010.5 hPa
Clouds: Overcast
Visibility: 9 miles , 14 km
Cloud details: Overcast 2800 ft
2019/07/20 02:54 KFZY 200254Z AUTO 00000KT 9SM OVC028 24/22 A2984 RMK AO2 RAB04E34 SLP100 P0034 60034 T02440222 58001
 
KRME - Rome/Griffiss Af, New York, USA
Distance from station: E 39mi, 62km
Updated: Fri, 19-Jul-2019 10:53pm EDT
Mostly cloudy
Mostly cloudy
 Wind from calm
Wind: Calm
Temperature: 77°F , 25°C
Dew Point: 75°F , 24°C
Humidity: 94%
Barometer: 29.85 inHg , 1010.8 hPa
Clouds: Mostly cloudy
Visibility: 10 miles , 16 km
Cloud details: Mostly cloudy 3900 ft
2019/07/20 02:53 KRME 200253Z AUTO 00000KT 10SM BKN039 25/24 A2985 RMK AO2 SLP102 T02500239 53007
KITH - Ithaca/Tompkins, New York, USA
Distance from station: SSW 51mi, 82km
Updated: Fri, 19-Jul-2019 10:56pm EDT
Clear
Clear
 Wind from SSE
Wind: SSE 3 mph , 6 km/h
Temperature: 75°F , 24°C
Dew Point: 72°F , 22°C
Humidity: 89%
Barometer: 29.92 inHg , 1013.2 hPa
Clouds: Clear
Visibility: 10 miles , 16 km
2019/07/20 02:56 KITH 200256Z AUTO 15003KT 10SM CLR 24/22 A2992 RMK AO2 SLP120 T02390217 53001
 
KART - Watertown, New York, USA
Distance from station: N 56mi, 91km
Updated: Fri, 19-Jul-2019 10:56pm EDT
Clear
Clear
 Wind from SW
Wind: SW 9 mph , 15 km/h
Temperature: 77°F , 25°C
Dew Point: 72°F , 22°C
Humidity: 83%
Barometer: 29.82 inHg , 1009.8 hPa
Clouds: Clear
Visibility: 10 miles , 16 km
2019/07/20 02:56 KART 200256Z AUTO 22008KT 10SM CLR 25/22 A2982 RMK AO2 SLP089 T02500217 52005
KPEO - Penn Yan, New York, USA
Distance from station: SW 58mi, 93km
Updated: Fri, 19-Jul-2019 10:53pm EDT
Clear
Clear
 Wind from SW
Wind: SW 10 mph , 17 km/h
Temperature: 77°F , 25°C
Dew Point: 72°F , 22°C
Humidity: 83%
Barometer: 29.90 inHg , 1012.5 hPa
Clouds: Clear
Visibility: 10 miles , 16 km
2019/07/20 02:53 KPEO 200253Z AUTO 22009KT 10SM CLR 25/22 A2990 RMK AO2 SLP114 T02500217 51003
 
KGTB - Fort Drum/Wheele, New York, USA
Distance from station: NNE 64mi, 102km
Updated: Fri, 19-Jul-2019 10:56pm EDT
Clear
Clear
 Wind from WSW
Wind: WSW 13 mph , 20 km/h
Temperature: 75°F , 24°C
Dew Point: 70°F , 21°C
Humidity: 83%
Barometer: 29.82 inHg , 1009.8 hPa
Clouds: Clear
Visibility: 10 miles , 16 km
2019/07/20 02:56 KGTB 200256Z AUTO 24011KT 10SM CLR 24/21 A2982 RMK AO2 SLP094 T02440207 52008
CWQP - Point Petre (mar, Ontario, Canada
Distance from station: NW 67mi, 107km
Updated: Fri, 19-Jul-2019 11:00pm EDT

 Wind from W
Wind: W 5 mph , 7 km/h
Temperature: 72°F , 22°C
Dew Point: 70°F , 21°C
Humidity: 94%
2019/07/20 03:00 CWQP 200300Z AUTO 26004KT 22/21 RMK AO1 SLP095 T02200211 50001
 
KBGM - Binghamton, New York, USA
Distance from station: S 67mi, 107km
Updated: Fri, 19-Jul-2019 10:53pm EDT
Clear
Clear
 Wind from WSW
Wind: WSW 7 mph , 11 km/h
Temperature: 72°F , 22°C
Dew Point: 68°F , 20°C
Humidity: 88%
Barometer: 29.93 inHg , 1013.5 hPa
Clouds: Clear
Visibility: 10 miles , 16 km
2019/07/20 02:53 KBGM 200253Z 25006KT 10SM CLR 22/20 A2993 RMK AO2 SLP122 60000 T02170200 50001
CYGK - Kingston Arpt (m, Ontario, Canada
Distance from station: NNW 75mi, 121km
Updated: Fri, 19-Jul-2019 11:00pm EDT
Mostly cloudy
Mostly cloudy
 Wind from WSW
Wind: WSW 9 mph , 15 km/h
Temperature: 75°F , 24°C
Dew Point: 73°F , 23°C
Humidity: 94%
Barometer: 29.80 inHg , 1009.1 hPa
Clouds: Mostly cloudy
Visibility: 15 miles , 24 km
Cloud details: Few Clouds 12000 ft
Mostly cloudy 23000 ft
2019/07/20 03:00 CYGK 200300Z 24008KT 15SM FEW120 BKN230 24/23 A2980 RMK AC1CI5 LAST STFD OBS/NXT 201000Z SLP090 DENSITY ALT 1600FT